KHLB/HLB METAR and TAF weather

Enter ICAO airport designator
Station Type Date Time Source
KHLB METAR 2021/08/01 16:15 UTC NOAA

KHLB 011615Z AUTO VRB06G11KT 10SM FEW021 SCT025 BKN031 24/20 A3000 RMK A01


Station Type Date Time Source
KHLB Decoded METAR 2021/08/01 16:15 UTC NOAA

Station name not available
Aug 01, 2021 - 12:15 PM EDT / 2021.08.01 1615 UTC
Wind: Variable at 7 MPH (6 KT) gusting to 13 MPH (11 KT):0
Visibility: 10 mile(s):0
Sky conditions: mostly cloudy
Temperature: 75 F (24 C)
Dew Point: 68 F (20 C)
Relative Humidity: 78%
Pressure (altimeter): 30 in. Hg (1015 hPa)
ob: KHLB 011615Z AUTO VRB06G11KT 10SM FEW021 SCT025 BKN031 24/20 A3000 RMK A01
cycle: 16

Station Type Date Time Source
KHLB TAF UTC NOAA

Error!

Example: see airport list